Nearby METAR Reports

 

KSJC - San Jose, California, USA
Distance from station: NO 14km
Uppdaterad: 2022-01-24 01:53
Few Clouds
Few Clouds
 Vind från NV
Vind: NV 6 km/h
Temperatur: 16°C
Daggpunkt: 3°C
Luftfuktighet: 42%
Barometer: 1023.4 hPa
Clouds: Few Clouds
Visibility: 16 km
Cloud details: Few Clouds 91 m
2022/01/24 00:53 KSJC 240053Z 32003KT 10SM FEW003 16/03 A3022 RMK AO2 SLP232 FU FEW003 T01610028
KNUQ - Moffett Nas/Mtn, California, USA
Distance from station: N 14km
Uppdaterad: 2022-01-24 02:15
Klart
Klart
 Vind från calm
Vind: Vindstilla
Temperatur: 16°C
Daggpunkt: 4°C
Luftfuktighet: 45%
Barometer: 1023.4 hPa
Clouds: Klart
Visibility: 16 km
2022/01/24 01:15 KNUQ 240115Z AUTO 00000KT 10SM CLR 16/04 A3022 RMK AO2
 
KPAO - Palo Alto, California, USA
Distance from station: NNV 23km
Uppdaterad: 2022-01-23 20:47
NOT Current
Klart
Klart
 Vind från VNV
Vind: VNV 7 km/h
Temperatur: 14°C
Daggpunkt: 2°C
Luftfuktighet: 44%
Barometer: 1025.4 hPa
Clouds: Klart
Visibility: 16 km
2022/01/23 19:47 KPAO 231947Z 29004KT 10SM SKC 14/02 A3028
KRHV - San Jose/Reid, California, USA
Distance from station: ONO 19km
Uppdaterad: 2022-01-24 01:50
Klart
Klart
 Vind från calm
Vind: Vindstilla
Temperatur: 17°C
Daggpunkt: 3°C
Luftfuktighet: 39%
Barometer: 1023.4 hPa
Clouds: Klart
Visibility: 16 km
2022/01/24 00:50 KRHV 240050Z 00000KT 10SM SKC 17/03 A3022
 
KOAK - Oakland, California, USA
Distance from station: NNV 50km
Uppdaterad: 2022-01-24 01:53
Klart
Klart
 Vind från calm
Vind: Vindstilla
Temperatur: 14°C
Daggpunkt: 7°C
Luftfuktighet: 63%
Barometer: 1023.7 hPa
Clouds: Klart
Visibility: 13 km
2022/01/24 00:53 KOAK 240053Z 00000KT 8SM CLR 14/07 A3023 RMK AO2 SLP238 HZ ALQDS FM SFC-020 T01440072 $
KSQL - San Carlos Airpo, California, USA
Distance from station: NV 34km
Uppdaterad: 2022-01-24 01:47
Klart
Klart
 Vind från calm
Vind: Vindstilla
Temperatur: 14°C
Daggpunkt: 8°C
Luftfuktighet: 67%
Barometer: 1023.7 hPa
Clouds: Klart
Visibility: 16 km
2022/01/24 00:47 KSQL 240047Z 00000KT 10SM CLR 14/08 A3023
 
KSFO - San Francisco, California, USA
Distance from station: NV 49km
Uppdaterad: 2022-01-24 01:56
Klart
Klart
 Vind från calm
Vind: Vindstilla
Temperatur: 15°C
Daggpunkt: 9°C
Luftfuktighet: 68%
Barometer: 1023.4 hPa
Clouds: Klart
Visibility: 16 km
2022/01/24 00:56 KSFO 240056Z 00000KT 10SM CLR 15/09 A3022 RMK AO2 SLP233 T01500089
KE16 - San Martin, California, USA
Distance from station: OSO 43km
Uppdaterad: 2022-01-24 02:10
Klart
Klart
 Vind från NV
Vind: NV 7 km/h
Temperatur: 16°C
Daggpunkt: 3°C
Luftfuktighet: 42%
Barometer: 1023.7 hPa
Clouds: Klart
Visibility: 16 km
2022/01/24 01:10 KE16 240110Z AUTO 31004KT 10SM CLR 16/03 A3023 RMK AO2 PWINO PNO
 
KWVI - Watsonville, California, USA
Distance from station: SSO 44km
Uppdaterad: 2022-01-24 01:53
Klart
Klart
 Vind från V
Vind: V 6 km/h
Temperatur: 13°C
Daggpunkt: 4°C
Luftfuktighet: 55%
Barometer: 1023.7 hPa
Clouds: Klart
Visibility: 16 km
2022/01/24 00:53 KWVI 240053Z AUTO 26003KT 10SM CLR 13/04 A3023 RMK AO2 SLP237 T01330044
KHAF - Half Moon Bay, California, USA
Distance from station: VNV 50km
Uppdaterad: 2022-01-24 01:55
Haze, Klart
Haze, Klart
 Vind från NV
Vind: NV 6 km/h
Temperatur: 13°C
Daggpunkt: 6°C
Luftfuktighet: 63%
Barometer: 1023.7 hPa
Summering: Haze
Clouds: Klart
Visibility: 10 km
2022/01/24 00:55 KHAF 240055Z AUTO 32003KT 6SM HZ CLR 13/06 A3023 RMK AO2
 
KHWD - Hayward, California, USA
Distance from station: N 44km
Uppdaterad: 2022-01-24 01:54
Klart
Klart
 Vind från calm
Vind: Vindstilla
Temperatur: 16°C
Daggpunkt: 6°C
Luftfuktighet: 52%
Barometer: 1023.4 hPa
Clouds: Klart
Visibility: 11 km
2022/01/24 00:54 KHWD 240054Z 00000KT 7SM CLR 16/06 A3022 RMK AO2 SLP243 T01560056
KLVK - Livermore, California, USA
Distance from station: NNO 51km
Uppdaterad: 2022-01-24 01:53
Klart
Klart
 Vind från calm
Vind: Vindstilla
Temperatur: 15°C
Daggpunkt: 4°C
Luftfuktighet: 48%
Barometer: 1023.4 hPa
Clouds: Klart
Visibility: 16 km
2022/01/24 00:53 KLVK 240053Z 00000KT 10SM CLR 15/04 A3022 RMK AO2 SLP232 T01500044